createdAt,value
2017-08-17T00:00:40.641Z,1013.80
2017-08-17T00:01:40.636Z,1013.78
2017-08-17T00:02:40.634Z,1013.78
2017-08-17T00:03:40.625Z,1013.82
2017-08-17T00:04:40.618Z,1013.82
2017-08-17T00:05:40.615Z,1013.89
2017-08-17T00:06:40.609Z,1013.87
2017-08-17T00:07:40.604Z,1013.84
2017-08-17T00:08:40.600Z,1013.81
2017-08-17T00:09:40.594Z,1013.81
2017-08-17T00:10:40.591Z,1013.77
2017-08-17T00:11:40.590Z,1013.77
2017-08-17T00:12:40.583Z,1013.74
2017-08-17T00:13:40.579Z,1013.75
2017-08-17T00:14:40.574Z,1013.76
2017-08-17T00:15:40.572Z,1013.70
2017-08-17T00:16:40.563Z,1013.73
2017-08-17T00:17:40.563Z,1013.67
2017-08-17T00:18:40.556Z,1013.67
2017-08-17T00:19:40.548Z,1013.71
2017-08-17T00:20:40.543Z,1013.70
2017-08-17T00:21:40.535Z,1013.71
2017-08-17T00:22:40.532Z,1013.67
2017-08-17T00:23:40.529Z,1013.69
2017-08-17T00:24:40.520Z,1013.66
2017-08-17T00:25:40.516Z,1013.66
2017-08-17T00:26:40.512Z,1013.62
2017-08-17T00:27:40.510Z,1013.60
2017-08-17T00:28:40.507Z,1013.61
2017-08-17T00:29:40.502Z,1013.58
2017-08-17T00:30:40.497Z,1013.55
2017-08-17T00:31:40.490Z,1013.56
2017-08-17T00:32:40.485Z,1013.55
2017-08-17T00:33:40.480Z,1013.59
2017-08-17T00:34:40.477Z,1013.55
2017-08-17T00:35:40.468Z,1013.58
2017-08-17T00:36:40.461Z,1013.57
2017-08-17T00:37:40.459Z,1013.58
2017-08-17T00:38:40.452Z,1013.59
2017-08-17T00:39:40.447Z,1013.61
2017-08-17T00:40:40.444Z,1013.63
2017-08-17T00:41:40.436Z,1013.60
2017-08-17T00:42:40.433Z,1013.62
2017-08-17T00:43:40.433Z,1013.59
2017-08-17T00:44:40.426Z,1013.58
2017-08-17T00:45:40.423Z,1013.56
2017-08-17T00:46:40.416Z,1013.55
2017-08-17T00:47:40.414Z,1013.55
2017-08-17T00:48:40.755Z,1013.59
2017-08-17T00:49:40.403Z,1013.59
2017-08-17T00:50:40.397Z,1013.61
2017-08-17T00:51:40.387Z,1013.61
2017-08-17T00:52:40.384Z,1013.62
2017-08-17T00:53:40.378Z,1013.62
2017-08-17T00:54:40.376Z,1013.60
2017-08-17T00:55:40.376Z,1013.57
2017-08-17T00:56:40.370Z,1013.54
2017-08-17T00:57:40.364Z,1013.58
2017-08-17T00:58:40.358Z,1013.59
2017-08-17T00:59:40.349Z,1013.58
2017-08-17T01:00:40.345Z,1013.52
2017-08-17T01:01:40.340Z,1013.55
2017-08-17T01:02:40.337Z,1013.54
2017-08-17T01:03:40.330Z,1013.51
2017-08-17T01:04:40.326Z,1013.51
2017-08-17T01:05:40.320Z,1013.49
2017-08-17T01:06:40.317Z,1013.47
2017-08-17T01:07:40.317Z,1013.46
2017-08-17T01:08:40.310Z,1013.46
2017-08-17T01:09:40.307Z,1013.43
2017-08-17T01:10:40.301Z,1013.44
2017-08-17T01:11:40.296Z,1013.41
2017-08-17T01:12:40.293Z,1013.42
2017-08-17T01:13:40.285Z,1013.40
2017-08-17T01:14:40.282Z,1013.41
2017-08-17T01:15:40.275Z,1013.43
2017-08-17T01:16:40.267Z,1013.43
2017-08-17T01:17:40.263Z,1013.41
2017-08-17T01:18:40.257Z,1013.33
2017-08-17T01:19:40.256Z,1013.35
2017-08-17T01:20:40.248Z,1013.23
2017-08-17T01:21:40.245Z,1013.21
2017-08-17T01:22:40.238Z,1013.19
2017-08-17T01:23:40.238Z,1013.19
2017-08-17T01:24:40.235Z,1013.20
2017-08-17T01:25:40.227Z,1013.24
2017-08-17T01:26:40.226Z,1013.27
2017-08-17T01:27:40.220Z,1013.28
2017-08-17T01:28:40.213Z,1013.29
2017-08-17T01:29:40.209Z,1013.29
2017-08-17T01:30:40.209Z,1013.24
2017-08-17T01:31:40.196Z,1013.31
2017-08-17T01:32:40.192Z,1013.27
2017-08-17T01:33:40.184Z,1013.22
2017-08-17T01:34:40.182Z,1013.21
2017-08-17T01:35:40.175Z,1013.20
2017-08-17T01:36:40.172Z,1013.23
2017-08-17T01:37:40.164Z,1013.22
2017-08-17T01:38:40.163Z,1013.20
2017-08-17T01:39:40.162Z,1013.21
2017-08-17T01:40:40.154Z,1013.22
2017-08-17T01:41:40.152Z,1013.20
2017-08-17T01:42:40.145Z,1013.22
2017-08-17T01:43:40.140Z,1013.24
2017-08-17T01:44:40.136Z,1013.24
2017-08-17T01:45:40.130Z,1013.23
2017-08-17T01:46:40.127Z,1013.23
2017-08-17T01:47:40.118Z,1013.23
2017-08-17T01:48:40.109Z,1013.24
2017-08-17T01:49:40.157Z,1013.17
2017-08-17T01:50:40.101Z,1013.20
2017-08-17T01:51:40.102Z,1013.23
2017-08-17T01:52:40.090Z,1013.23
2017-08-17T01:53:40.086Z,1013.18
2017-08-17T01:54:40.081Z,1013.21
2017-08-17T01:55:40.080Z,1013.18
2017-08-17T01:56:40.075Z,1013.21
2017-08-17T01:57:40.069Z,1013.21
2017-08-17T01:58:40.068Z,1013.20
2017-08-17T01:59:40.057Z,1013.17
2017-08-17T02:00:40.049Z,1013.17
2017-08-17T02:01:40.046Z,1013.19
2017-08-17T02:02:40.039Z,1013.19
2017-08-17T02:03:40.039Z,1013.21
2017-08-17T02:04:41.637Z,1013.21
2017-08-17T02:05:40.028Z,1013.24
2017-08-17T02:06:40.025Z,1013.25
2017-08-17T02:07:40.018Z,1013.24
2017-08-17T02:08:40.016Z,1013.27
2017-08-17T02:09:40.007Z,1013.26
2017-08-17T02:10:40.003Z,1013.31
2017-08-17T02:11:39.995Z,1013.36
2017-08-17T02:12:39.987Z,1013.46
2017-08-17T02:13:39.984Z,1013.49
2017-08-17T02:14:39.977Z,1013.49
2017-08-17T02:15:39.973Z,1013.54
2017-08-17T02:16:39.969Z,1013.57
2017-08-17T02:17:39.961Z,1013.55
2017-08-17T02:18:39.957Z,1013.59
2017-08-17T02:19:39.958Z,1013.60
2017-08-17T02:20:39.949Z,1013.61
2017-08-17T02:21:39.947Z,1013.59
2017-08-17T02:22:39.939Z,1013.66
2017-08-17T02:23:39.937Z,1013.57
2017-08-17T02:24:39.928Z,1013.59
2017-08-17T02:25:39.926Z,1013.56
2017-08-17T02:26:39.919Z,1013.60
2017-08-17T02:27:39.909Z,1013.56
2017-08-17T02:28:39.909Z,1013.52
2017-08-17T02:29:39.899Z,1013.54
2017-08-17T02:30:39.896Z,1013.60
2017-08-17T02:31:39.890Z,1013.52
2017-08-17T02:32:39.882Z,1013.57
2017-08-17T02:33:39.879Z,1013.54
2017-08-17T02:34:39.871Z,1013.55
2017-08-17T02:35:39.872Z,1013.53
2017-08-17T02:36:39.868Z,1013.47
2017-08-17T02:37:39.861Z,1013.49
2017-08-17T02:38:39.857Z,1013.53
2017-08-17T02:39:39.850Z,1013.51
2017-08-17T02:40:39.845Z,1013.54
2017-08-17T02:41:39.839Z,1013.50
2017-08-17T02:42:39.835Z,1013.52
2017-08-17T02:43:39.827Z,1013.51
2017-08-17T02:44:39.817Z,1013.50
2017-08-17T02:45:39.815Z,1013.47
2017-08-17T02:46:39.808Z,1013.46
2017-08-17T02:47:39.803Z,1013.49
2017-08-17T02:48:39.797Z,1013.43
2017-08-17T02:49:39.792Z,1013.44
2017-08-17T02:50:39.787Z,1013.43
2017-08-17T02:51:39.787Z,1013.44
2017-08-17T02:52:39.777Z,1013.41
2017-08-17T02:53:39.776Z,1013.35
2017-08-17T02:54:39.768Z,1013.35
2017-08-17T02:55:39.765Z,1013.29
2017-08-17T02:56:39.760Z,1013.29
2017-08-17T02:57:39.753Z,1013.32
2017-08-17T02:58:39.747Z,1013.28
2017-08-17T02:59:39.737Z,1013.24
2017-08-17T03:00:40.082Z,1013.26
2017-08-17T03:01:39.725Z,1013.24
2017-08-17T03:02:39.723Z,1013.25
2017-08-17T03:03:39.721Z,1013.28
2017-08-17T03:04:39.713Z,1013.28
2017-08-17T03:05:39.710Z,1013.27
2017-08-17T03:06:39.702Z,1013.30
2017-08-17T03:07:39.691Z,1013.29
2017-08-17T03:08:39.687Z,1013.28
2017-08-17T03:09:39.681Z,1013.25
2017-08-17T03:10:39.680Z,1013.32
2017-08-17T03:11:39.670Z,1013.31
2017-08-17T03:12:39.666Z,1013.32
2017-08-17T03:13:39.659Z,1013.28
2017-08-17T03:14:39.656Z,1013.30
2017-08-17T03:15:39.654Z,1013.29
2017-08-17T03:16:39.646Z,1013.25
2017-08-17T03:17:39.643Z,1013.29
2017-08-17T03:18:39.636Z,1013.27
2017-08-17T03:19:39.630Z,1013.25
2017-08-17T03:20:39.630Z,1013.24
2017-08-17T03:21:39.617Z,1013.23
2017-08-17T03:22:39.617Z,1013.21
2017-08-17T03:23:39.606Z,1013.23
2017-08-17T03:24:39.598Z,1013.23
2017-08-17T03:25:39.596Z,1013.27
2017-08-17T03:26:39.587Z,1013.22
2017-08-17T03:27:39.582Z,1013.24
2017-08-17T03:28:39.574Z,1013.28
2017-08-17T03:29:39.572Z,1013.24
2017-08-17T03:30:39.564Z,1013.21
2017-08-17T03:31:39.563Z,1013.21
2017-08-17T03:32:39.559Z,1013.22
2017-08-17T03:33:39.551Z,1013.21
2017-08-17T03:34:39.549Z,1013.20
2017-08-17T03:35:39.541Z,1013.19
2017-08-17T03:36:39.835Z,1013.18
2017-08-17T03:37:39.531Z,1013.13
2017-08-17T03:38:39.522Z,1013.16
2017-08-17T03:39:39.513Z,1013.14
2017-08-17T03:40:39.516Z,1013.12
2017-08-17T03:41:39.502Z,1013.10
2017-08-17T03:42:39.499Z,1013.18
2017-08-17T03:43:39.491Z,1013.16
2017-08-17T03:44:39.487Z,1013.19
2017-08-17T03:45:39.485Z,1013.15
2017-08-17T03:46:39.475Z,1013.15
2017-08-17T03:47:39.475Z,1013.14
2017-08-17T03:48:39.467Z,1013.13
2017-08-17T03:49:39.463Z,1013.19
2017-08-17T03:50:39.456Z,1013.16
2017-08-17T03:51:39.449Z,1013.18
2017-08-17T03:52:39.445Z,1013.14
2017-08-17T03:53:39.439Z,1013.08
2017-08-17T03:54:39.441Z,1013.11
2017-08-17T03:55:39.426Z,1013.09
2017-08-17T03:56:39.418Z,1013.10
2017-08-17T03:57:39.413Z,1013.09
2017-08-17T03:58:39.407Z,1013.12
2017-08-17T03:59:39.404Z,1013.07
2017-08-17T04:00:39.395Z,1013.12
2017-08-17T04:01:39.391Z,1013.08
2017-08-17T04:02:39.384Z,1013.08
2017-08-17T04:03:39.383Z,1013.07
2017-08-17T04:04:39.378Z,1013.06
2017-08-17T04:05:39.371Z,1013.03
2017-08-17T04:06:39.371Z,1012.98
2017-08-17T04:07:39.359Z,1013.00
2017-08-17T04:08:39.357Z,1012.99
2017-08-17T04:09:39.348Z,1012.97
2017-08-17T04:10:39.345Z,1012.96
2017-08-17T04:11:39.334Z,1012.97
2017-08-17T04:12:39.327Z,1012.93
2017-08-17T04:13:39.323Z,1012.95
2017-08-17T04:14:39.315Z,1012.96
2017-08-17T04:15:39.313Z,1012.96
2017-08-17T04:16:39.304Z,1012.96
2017-08-17T04:17:39.301Z,1012.93
2017-08-17T04:18:39.293Z,1012.94
2017-08-17T04:19:39.292Z,1012.90
2017-08-17T04:20:39.287Z,1012.92
2017-08-17T04:21:39.280Z,1012.89
2017-08-17T04:22:39.275Z,1012.83
2017-08-17T04:23:39.270Z,1012.83
2017-08-17T04:24:39.262Z,1012.85
2017-08-17T04:25:39.265Z,1012.84
2017-08-17T04:26:39.251Z,1012.88
2017-08-17T04:27:39.591Z,1012.86
2017-08-17T04:28:39.236Z,1012.90
2017-08-17T04:29:39.228Z,1012.87
2017-08-17T04:30:39.227Z,1012.87
2017-08-17T04:31:39.218Z,1012.87
2017-08-17T04:32:39.214Z,1012.84
2017-08-17T04:33:39.204Z,1012.79
2017-08-17T04:34:39.201Z,1012.80
2017-08-17T04:35:39.201Z,1012.78
2017-08-17T04:36:39.192Z,1012.79
2017-08-17T04:37:39.189Z,1012.66
2017-08-17T04:38:39.181Z,1012.71
2017-08-17T04:39:39.176Z,1012.64
2017-08-17T04:40:39.171Z,1012.63
2017-08-17T04:41:39.162Z,1012.61
2017-08-17T04:42:39.159Z,1012.57
2017-08-17T04:43:39.149Z,1012.57
2017-08-17T04:44:39.144Z,1012.58
2017-08-17T04:45:39.139Z,1012.61
2017-08-17T04:46:39.131Z,1012.62
2017-08-17T04:47:39.133Z,1012.60
2017-08-17T04:48:39.119Z,1012.64
2017-08-17T04:49:39.114Z,1012.62
2017-08-17T04:50:39.107Z,1012.62
2017-08-17T04:51:39.107Z,1012.61
2017-08-17T04:52:39.103Z,1012.56
2017-08-17T04:53:39.095Z,1012.56
2017-08-17T04:54:39.092Z,1012.58
2017-08-17T04:55:39.085Z,1012.64
2017-08-17T04:56:39.078Z,1012.70
2017-08-17T04:57:39.073Z,1012.72
2017-08-17T04:58:39.067Z,1012.73
2017-08-17T04:59:39.058Z,1012.77
2017-08-17T05:00:39.053Z,1012.83
2017-08-17T05:01:39.046Z,1012.90
2017-08-17T05:02:39.043Z,1012.87
2017-08-17T05:03:39.036Z,1012.83
2017-08-17T05:04:39.033Z,1012.84
2017-08-17T05:05:39.025Z,1012.78
2017-08-17T05:06:39.023Z,1012.85
2017-08-17T05:07:39.024Z,1012.87
2017-08-17T05:08:39.017Z,1012.86
2017-08-17T05:09:39.016Z,1012.89
2017-08-17T05:10:39.009Z,1012.81
2017-08-17T05:11:39.006Z,1012.78
2017-08-17T05:12:38.997Z,1012.83
2017-08-17T05:13:38.993Z,1012.90
2017-08-17T05:14:38.990Z,1012.89
2017-08-17T05:15:38.992Z,1012.91
2017-08-17T05:16:38.986Z,1012.95
2017-08-17T05:17:38.985Z,1012.95
2017-08-17T05:18:38.981Z,1012.95
2017-08-17T05:19:38.980Z,1012.99
2017-08-17T05:20:38.975Z,1013.01
2017-08-17T05:21:38.974Z,1013.03
2017-08-17T05:22:38.970Z,1013.09
2017-08-17T05:23:38.989Z,1013.07
2017-08-17T05:24:38.961Z,1013.07
2017-08-17T05:25:38.959Z,1013.15
2017-08-17T05:26:38.959Z,1013.02
2017-08-17T05:27:38.958Z,1013.00
2017-08-17T05:28:38.957Z,1013.22
2017-08-17T05:29:38.954Z,1013.23
2017-08-17T05:30:38.952Z,1013.32
2017-08-17T05:31:38.955Z,1013.27
2017-08-17T05:32:38.954Z,1013.27
2017-08-17T05:33:38.950Z,1013.23
2017-08-17T05:34:38.954Z,1013.07
2017-08-17T05:35:38.950Z,1013.04
2017-08-17T05:36:38.950Z,1012.93
2017-08-17T05:37:38.949Z,1012.88
2017-08-17T05:38:38.951Z,1012.70
2017-08-17T05:39:38.945Z,1012.66
2017-08-17T05:40:38.942Z,1012.73
2017-08-17T05:41:38.944Z,1012.64
2017-08-17T05:42:38.943Z,1012.63
2017-08-17T05:43:38.941Z,1012.59
2017-08-17T05:44:38.943Z,1012.54
2017-08-17T05:45:38.940Z,1012.54
2017-08-17T05:46:38.942Z,1012.50
2017-08-17T05:47:38.946Z,1012.48
2017-08-17T05:48:38.943Z,1012.53
2017-08-17T05:49:38.944Z,1012.51
2017-08-17T05:50:38.944Z,1012.51
2017-08-17T05:51:38.943Z,1012.55
2017-08-17T05:52:38.938Z,1012.55
2017-08-17T05:53:38.940Z,1012.58
2017-08-17T05:54:38.938Z,1012.59
2017-08-17T05:55:38.943Z,1012.54
2017-08-17T05:56:38.933Z,1012.51
2017-08-17T05:57:38.930Z,1012.49
2017-08-17T05:58:38.931Z,1012.57
2017-08-17T05:59:38.931Z,1012.52
2017-08-17T06:00:38.934Z,1012.57
2017-08-17T06:01:38.928Z,1012.56
2017-08-17T06:02:38.924Z,1012.57
2017-08-17T06:03:38.928Z,1012.55
2017-08-17T06:04:38.927Z,1012.59
2017-08-17T06:05:38.924Z,1012.59
2017-08-17T06:06:38.926Z,1012.64
2017-08-17T06:07:38.922Z,1012.63
2017-08-17T06:08:38.923Z,1012.63
2017-08-17T06:09:38.918Z,1012.56
2017-08-17T06:10:38.920Z,1012.54
2017-08-17T06:11:38.916Z,1012.51
2017-08-17T06:12:38.910Z,1012.57
2017-08-17T06:13:38.921Z,1012.47
2017-08-17T06:14:38.909Z,1012.51
2017-08-17T06:15:38.912Z,1012.51
2017-08-17T06:16:38.913Z,1012.48
2017-08-17T06:17:38.909Z,1012.47
2017-08-17T06:18:38.910Z,1012.51
2017-08-17T06:19:38.904Z,1012.43
2017-08-17T06:20:38.900Z,1012.50
2017-08-17T06:21:38.901Z,1012.49
2017-08-17T06:22:38.897Z,1012.50
2017-08-17T06:23:39.047Z,1012.51
2017-08-17T06:24:38.894Z,1012.46
2017-08-17T06:25:38.895Z,1012.43
2017-08-17T06:26:38.889Z,1012.38
2017-08-17T06:27:38.893Z,1012.42
2017-08-17T06:28:38.893Z,1012.43
2017-08-17T06:29:38.889Z,1012.40
2017-08-17T06:30:38.890Z,1012.40
2017-08-17T06:31:38.889Z,1012.43
2017-08-17T06:32:38.883Z,1012.38
2017-08-17T06:33:38.884Z,1012.42
2017-08-17T06:34:38.885Z,1012.41
2017-08-17T06:35:38.876Z,1012.39
2017-08-17T06:36:38.875Z,1012.42
2017-08-17T06:37:38.872Z,1012.45
2017-08-17T06:38:38.872Z,1012.41
2017-08-17T06:39:38.867Z,1012.46
2017-08-17T06:40:38.869Z,1012.42
2017-08-17T06:41:38.863Z,1012.44
2017-08-17T06:42:38.864Z,1012.45
2017-08-17T06:43:38.866Z,1012.35
2017-08-17T06:44:38.861Z,1012.39
2017-08-17T06:45:38.862Z,1012.42
2017-08-17T06:46:38.857Z,1012.39
2017-08-17T06:47:38.854Z,1012.41
2017-08-17T06:48:38.854Z,1012.40
2017-08-17T06:49:38.850Z,1012.31
2017-08-17T06:50:38.851Z,1012.39
2017-08-17T06:51:38.844Z,1012.34
2017-08-17T06:52:38.839Z,1012.30
2017-08-17T06:53:38.839Z,1012.31
2017-08-17T06:54:38.835Z,1012.32
2017-08-17T06:55:38.834Z,1012.32
2017-08-17T06:56:38.830Z,1012.31
2017-08-17T06:57:38.829Z,1012.30
2017-08-17T06:58:38.825Z,1012.30
2017-08-17T06:59:38.827Z,1012.33
2017-08-17T07:00:38.825Z,1012.34
2017-08-17T07:01:38.821Z,1012.35
2017-08-17T07:02:38.821Z,1012.33
2017-08-17T07:03:38.819Z,1012.40
2017-08-17T07:04:38.818Z,1012.36
2017-08-17T07:05:38.813Z,1012.35
2017-08-17T07:06:38.811Z,1012.36
2017-08-17T07:07:38.800Z,1012.31
2017-08-17T07:08:39.300Z,1012.33
2017-08-17T07:09:38.796Z,1012.34
2017-08-17T07:10:38.794Z,1012.32
2017-08-17T07:11:38.791Z,1012.32
2017-08-17T07:12:38.788Z,1012.26
2017-08-17T07:13:38.785Z,1012.24
2017-08-17T07:14:38.785Z,1012.25
2017-08-17T07:15:38.786Z,1012.27
2017-08-17T07:16:38.779Z,1012.17
2017-08-17T07:17:38.801Z,1012.22
2017-08-17T07:18:38.774Z,1012.23
2017-08-17T07:19:38.766Z,1012.25
2017-08-17T07:20:38.766Z,1012.28
2017-08-17T07:21:38.762Z,1012.25
2017-08-17T07:22:38.761Z,1012.32
2017-08-17T07:23:38.762Z,1012.26
2017-08-17T07:24:38.756Z,1012.32
2017-08-17T07:25:38.755Z,1012.28
2017-08-17T07:26:38.752Z,1012.28
2017-08-17T07:27:38.750Z,1012.25
2017-08-17T07:28:38.745Z,1012.26
2017-08-17T07:29:38.744Z,1012.24
2017-08-17T07:30:38.738Z,1012.29
2017-08-17T07:31:38.733Z,1012.29
2017-08-17T07:32:38.731Z,1012.35
2017-08-17T07:33:38.725Z,1012.39
2017-08-17T07:34:38.726Z,1012.40
2017-08-17T07:35:38.723Z,1012.33
2017-08-17T07:36:38.719Z,1012.39
2017-08-17T07:37:38.719Z,1012.30
2017-08-17T07:38:38.715Z,1012.37
2017-08-17T07:39:38.717Z,1012.34
2017-08-17T07:40:38.715Z,1012.27
2017-08-17T07:41:38.715Z,1012.24
2017-08-17T07:42:38.713Z,1012.27
2017-08-17T07:43:38.709Z,1012.23
2017-08-17T07:44:38.710Z,1012.21
2017-08-17T07:45:38.706Z,1012.17
2017-08-17T07:46:38.716Z,1012.18
2017-08-17T07:47:38.702Z,1012.21
2017-08-17T07:48:38.699Z,1012.24
2017-08-17T07:49:38.699Z,1012.22
2017-08-17T07:50:38.698Z,1012.19
2017-08-17T07:51:38.694Z,1012.16
2017-08-17T07:52:38.696Z,1012.21
2017-08-17T07:53:38.693Z,1012.22
2017-08-17T07:54:38.695Z,1012.23
2017-08-17T07:55:38.698Z,1012.21
2017-08-17T07:56:38.695Z,1012.25
2017-08-17T07:57:38.695Z,1012.22
2017-08-17T07:58:38.711Z,1012.24
2017-08-17T07:59:38.694Z,1012.21
2017-08-17T08:00:38.691Z,1012.23
2017-08-17T08:01:38.694Z,1012.23
2017-08-17T08:02:38.691Z,1012.14
2017-08-17T08:03:38.685Z,1012.15
2017-08-17T08:04:38.686Z,1012.20
2017-08-17T08:05:38.685Z,1012.17
2017-08-17T08:06:38.687Z,1012.16
2017-08-17T08:07:38.687Z,1012.11
2017-08-17T08:08:38.684Z,1012.10
2017-08-17T08:09:38.685Z,1012.18
2017-08-17T08:10:38.684Z,1012.19
2017-08-17T08:11:38.688Z,1012.15
2017-08-17T08:12:38.693Z,1012.11
2017-08-17T08:13:38.686Z,1012.09
2017-08-17T08:14:38.689Z,1012.11
2017-08-17T08:15:38.686Z,1012.08
2017-08-17T08:16:38.687Z,1012.14
2017-08-17T08:17:38.684Z,1012.09
2017-08-17T08:18:38.687Z,1012.07
2017-08-17T08:19:38.681Z,1012.08
2017-08-17T08:20:38.678Z,1012.15
2017-08-17T08:21:38.680Z,1012.14
2017-08-17T08:22:38.677Z,1012.16
2017-08-17T08:23:38.680Z,1012.10
2017-08-17T08:24:38.680Z,1012.12
2017-08-17T08:25:38.678Z,1012.12
2017-08-17T08:26:38.683Z,1012.13
2017-08-17T08:27:38.674Z,1012.12
2017-08-17T08:28:38.671Z,1012.14
2017-08-17T08:29:38.672Z,1012.08
2017-08-17T08:30:38.672Z,1012.16
2017-08-17T08:31:38.670Z,1012.12
2017-08-17T08:32:38.669Z,1012.13
2017-08-17T08:33:38.669Z,1012.13
2017-08-17T08:34:38.666Z,1012.13
2017-08-17T08:35:38.668Z,1012.18
2017-08-17T08:36:38.670Z,1012.16
2017-08-17T08:37:38.667Z,1012.15
2017-08-17T08:38:38.668Z,1012.14
2017-08-17T08:39:38.666Z,1012.12
2017-08-17T08:40:38.662Z,1012.10
2017-08-17T08:41:38.664Z,1012.09
2017-08-17T08:42:38.661Z,1012.11
2017-08-17T08:43:38.674Z,1012.09
2017-08-17T08:44:38.657Z,1012.12
2017-08-17T08:45:38.654Z,1012.11
2017-08-17T08:46:38.655Z,1012.07
2017-08-17T08:47:38.691Z,1012.08
2017-08-17T08:48:38.652Z,1012.06
2017-08-17T08:49:38.649Z,1011.96
2017-08-17T08:50:38.652Z,1011.91
2017-08-17T08:51:38.654Z,1011.92
2017-08-17T08:52:38.653Z,1011.95
2017-08-17T08:53:38.652Z,1011.94
2017-08-17T08:54:38.654Z,1011.94
2017-08-17T08:55:38.649Z,1012.00
2017-08-17T08:56:38.651Z,1011.98
2017-08-17T08:57:38.645Z,1011.94
2017-08-17T08:58:38.646Z,1011.98
2017-08-17T08:59:38.642Z,1011.96
2017-08-17T09:00:38.637Z,1011.91
2017-08-17T09:01:38.639Z,1011.91
2017-08-17T09:02:38.637Z,1011.88
2017-08-17T09:03:38.639Z,1011.88
2017-08-17T09:04:38.636Z,1011.86
2017-08-17T09:05:38.636Z,1011.87
2017-08-17T09:06:38.632Z,1011.90
2017-08-17T09:07:38.638Z,1011.81
2017-08-17T09:08:38.638Z,1011.85
2017-08-17T09:09:38.646Z,1011.83
2017-08-17T09:10:38.637Z,1011.89
2017-08-17T09:11:38.636Z,1011.89
2017-08-17T09:12:38.633Z,1011.90
2017-08-17T09:13:38.635Z,1011.93
2017-08-17T09:14:38.633Z,1011.93
2017-08-17T09:15:38.627Z,1011.99
2017-08-17T09:16:38.629Z,1012.01
2017-08-17T09:17:38.626Z,1011.96
2017-08-17T09:18:38.628Z,1011.90
2017-08-17T09:19:38.626Z,1011.90
2017-08-17T09:20:38.627Z,1011.85
2017-08-17T09:21:38.624Z,1011.83
2017-08-17T09:22:38.628Z,1011.76
2017-08-17T09:23:38.631Z,1011.79
2017-08-17T09:24:38.628Z,1011.75
2017-08-17T09:25:38.686Z,1011.78
2017-08-17T09:26:38.630Z,1011.71
2017-08-17T09:27:38.628Z,1011.75
2017-08-17T09:28:38.642Z,1011.72
2017-08-17T09:29:38.624Z,1011.74
2017-08-17T09:30:38.639Z,1011.69
2017-08-17T09:31:38.639Z,1011.69
2017-08-17T09:32:38.648Z,1011.62
2017-08-17T09:33:38.630Z,1011.64
2017-08-17T09:34:38.629Z,1011.65
2017-08-17T09:35:38.631Z,1011.64
2017-08-17T09:36:38.630Z,1011.68
2017-08-17T09:37:38.632Z,1011.71
2017-08-17T09:38:38.641Z,1011.67
2017-08-17T09:39:38.631Z,1011.66
2017-08-17T09:40:38.634Z,1011.68
2017-08-17T09:41:38.626Z,1011.75
2017-08-17T09:42:38.657Z,1011.75
2017-08-17T09:43:38.632Z,1011.73
2017-08-17T09:44:38.642Z,1011.73
2017-08-17T09:45:38.629Z,1011.77
2017-08-17T09:46:38.628Z,1011.73
2017-08-17T09:47:38.631Z,1011.76
2017-08-17T09:48:38.656Z,1011.73
2017-08-17T09:49:38.632Z,1011.76
2017-08-17T09:50:38.636Z,1011.77
2017-08-17T09:51:38.634Z,1011.73
2017-08-17T09:52:38.635Z,1011.72
2017-08-17T09:53:38.635Z,1011.72
2017-08-17T09:54:38.638Z,1011.66
2017-08-17T09:55:38.645Z,1011.68
2017-08-17T09:56:38.635Z,1011.68
2017-08-17T09:57:38.636Z,1011.60
2017-08-17T09:58:38.641Z,1011.60
2017-08-17T09:59:38.637Z,1011.63
2017-08-17T10:00:38.640Z,1011.51
2017-08-17T10:01:38.641Z,1011.56
2017-08-17T10:02:38.643Z,1011.58
2017-08-17T10:03:38.657Z,1011.54
2017-08-17T10:04:38.647Z,1011.42
2017-08-17T10:05:38.651Z,1011.41
2017-08-17T10:06:38.651Z,1011.39
2017-08-17T10:07:38.656Z,1011.40
2017-08-17T10:08:38.655Z,1011.41
2017-08-17T10:09:38.659Z,1011.48
2017-08-17T10:10:38.660Z,1011.50
2017-08-17T10:11:38.657Z,1011.44
2017-08-17T10:12:38.661Z,1011.43
2017-08-17T10:13:38.662Z,1011.46
2017-08-17T10:14:38.666Z,1011.46
2017-08-17T10:15:38.681Z,1011.40
2017-08-17T10:16:38.669Z,1011.39
2017-08-17T10:17:38.673Z,1011.37
2017-08-17T10:18:38.672Z,1011.35
2017-08-17T10:19:38.680Z,1011.35
2017-08-17T10:20:38.684Z,1011.30
2017-08-17T10:21:38.684Z,1011.34
2017-08-17T10:22:38.689Z,1011.36
2017-08-17T10:23:38.689Z,1011.40
2017-08-17T10:24:38.694Z,1011.41
2017-08-17T10:25:38.694Z,1011.36
2017-08-17T10:26:38.698Z,1011.38
2017-08-17T10:27:38.697Z,1011.30
2017-08-17T10:28:38.703Z,1011.31
2017-08-17T10:29:38.702Z,1011.22
2017-08-17T10:30:38.701Z,1011.27
2017-08-17T10:31:38.710Z,1011.22
2017-08-17T10:32:38.715Z,1011.21
2017-08-17T10:33:38.714Z,1011.22
2017-08-17T10:34:38.719Z,1011.20
2017-08-17T10:35:38.721Z,1011.23
2017-08-17T10:36:38.718Z,1011.25
2017-08-17T10:37:38.724Z,1011.31
2017-08-17T10:38:38.725Z,1011.27
2017-08-17T10:39:38.730Z,1011.28
2017-08-17T10:40:38.728Z,1011.20
2017-08-17T10:41:38.734Z,1011.23
2017-08-17T10:42:38.735Z,1011.29
2017-08-17T10:43:38.742Z,1011.22
2017-08-17T10:44:38.745Z,1011.16
2017-08-17T10:45:38.746Z,1011.07
2017-08-17T10:46:38.751Z,1011.01
2017-08-17T10:47:38.755Z,1011.02
2017-08-17T10:48:38.752Z,1011.08
2017-08-17T10:49:38.757Z,1011.09
2017-08-17T10:50:38.757Z,1011.12
2017-08-17T10:51:38.756Z,1011.17
2017-08-17T10:52:38.758Z,1011.15
2017-08-17T10:53:38.763Z,1011.15
2017-08-17T10:54:38.764Z,1011.30
2017-08-17T10:55:38.764Z,1011.29
2017-08-17T10:56:38.767Z,1011.31
2017-08-17T10:57:38.770Z,1011.30
2017-08-17T10:58:38.772Z,1011.38
2017-08-17T10:59:38.777Z,1011.35
2017-08-17T11:00:38.776Z,1011.38
2017-08-17T11:01:38.782Z,1011.28
2017-08-17T11:02:38.783Z,1011.26
2017-08-17T11:03:38.785Z,1011.16
2017-08-17T11:04:38.790Z,1011.09
2017-08-17T11:05:38.806Z,1011.12
2017-08-17T11:06:38.797Z,1011.14
2017-08-17T11:07:38.806Z,1011.19
2017-08-17T11:08:38.820Z,1011.18
2017-08-17T11:09:38.799Z,1011.26
2017-08-17T11:10:38.801Z,1011.19
2017-08-17T11:11:38.804Z,1011.23
2017-08-17T11:12:38.803Z,1011.15
2017-08-17T11:13:38.809Z,1011.28
2017-08-17T11:14:38.810Z,1011.26
2017-08-17T11:15:38.816Z,1011.24
2017-08-17T11:16:38.819Z,1011.20
2017-08-17T11:17:38.821Z,1011.12
2017-08-17T11:18:38.830Z,1011.14
2017-08-17T11:19:38.842Z,1011.03
2017-08-17T11:20:38.839Z,1011.11
2017-08-17T11:21:38.830Z,1011.04
2017-08-17T11:22:38.832Z,1011.13
2017-08-17T11:23:38.831Z,1011.10
2017-08-17T11:24:38.832Z,1011.11
2017-08-17T11:25:38.833Z,1011.20
2017-08-17T11:26:38.837Z,1011.19
2017-08-17T11:27:38.855Z,1011.20
2017-08-17T11:28:38.841Z,1011.15
2017-08-17T11:29:38.840Z,1011.15
2017-08-17T11:30:38.843Z,1011.16
2017-08-17T11:31:38.849Z,1011.14
2017-08-17T11:32:38.847Z,1011.20
2017-08-17T11:33:38.851Z,1011.18
2017-08-17T11:34:38.852Z,1011.07
2017-08-17T11:35:38.849Z,1011.04
2017-08-17T11:36:38.851Z,1011.00
2017-08-17T11:37:38.850Z,1010.98
2017-08-17T11:38:38.854Z,1011.02
2017-08-17T11:39:38.860Z,1011.06
2017-08-17T11:40:38.860Z,1011.12
2017-08-17T11:41:38.862Z,1011.08
2017-08-17T11:42:38.862Z,1011.11
2017-08-17T11:43:38.882Z,1010.96
2017-08-17T11:44:38.864Z,1010.95
2017-08-17T11:45:38.869Z,1010.89
2017-08-17T11:46:38.868Z,1010.86
2017-08-17T11:47:38.866Z,1010.90
2017-08-17T11:48:38.868Z,1010.94
2017-08-17T11:49:38.867Z,1011.04
2017-08-17T11:50:38.874Z,1010.94
2017-08-17T11:51:38.875Z,1010.95
2017-08-17T11:52:38.872Z,1011.06
2017-08-17T11:53:38.874Z,1010.95
2017-08-17T11:54:38.875Z,1010.95
2017-08-17T11:55:38.881Z,1010.91
2017-08-17T11:56:38.883Z,1010.91
2017-08-17T11:57:38.882Z,1010.90
2017-08-17T11:58:38.885Z,1010.96
2017-08-17T11:59:38.885Z,1010.94
2017-08-17T12:00:38.888Z,1010.90
2017-08-17T12:01:38.888Z,1010.92
2017-08-17T12:02:38.891Z,1010.89
2017-08-17T12:03:38.888Z,1010.88
2017-08-17T12:04:38.888Z,1010.85
2017-08-17T12:05:38.890Z,1010.87